createdAt,value
2018-12-24T00:02:35.146Z,6.80
2018-12-24T00:05:22.474Z,6.92
2018-12-24T00:08:02.728Z,6.99
2018-12-24T00:10:49.976Z,6.96
2018-12-24T00:13:30.334Z,6.92
2018-12-24T00:16:18.298Z,6.81
2018-12-24T00:18:58.392Z,6.84
2018-12-24T00:21:45.698Z,6.77
2018-12-24T00:27:38.959Z,6.79
2018-12-24T00:30:26.432Z,6.78
2018-12-24T00:33:44.796Z,6.70
2018-12-24T00:36:25.678Z,6.71
2018-12-24T00:39:13.782Z,6.86
2018-12-24T00:42:38.721Z,6.88
2018-12-24T00:48:32.976Z,6.85
2018-12-24T00:51:20.327Z,6.82
2018-12-24T00:54:00.377Z,6.78
2018-12-24T00:56:47.636Z,6.85
2018-12-24T00:59:28.470Z,7.00
2018-12-24T01:02:15.792Z,6.93
2018-12-24T01:04:56.422Z,6.89
2018-12-24T01:07:43.684Z,6.73
2018-12-24T01:10:23.988Z,6.89
2018-12-24T01:13:11.602Z,6.89
2018-12-24T01:15:52.095Z,6.88
2018-12-24T01:18:39.340Z,6.96
2018-12-24T01:21:19.372Z,7.02
2018-12-24T01:24:06.618Z,7.09
2018-12-24T01:26:46.593Z,7.05
2018-12-24T01:29:33.817Z,7.01
2018-12-24T01:32:14.072Z,6.98
2018-12-24T01:35:01.328Z,7.03
2018-12-24T01:37:42.162Z,6.98
2018-12-24T01:40:29.426Z,7.13
2018-12-24T01:43:10.022Z,7.14
2018-12-24T01:45:57.694Z,7.03
2018-12-24T01:48:38.206Z,6.94
2018-12-24T01:51:25.478Z,6.89
2018-12-24T01:54:05.753Z,6.97
2018-12-24T01:56:53.257Z,6.88
2018-12-24T01:59:33.400Z,7.02
2018-12-24T02:02:20.794Z,6.94
2018-12-24T02:05:00.846Z,6.88
2018-12-24T02:07:48.125Z,7.05
2018-12-24T02:10:28.124Z,6.96
2018-12-24T02:13:15.402Z,6.86
2018-12-24T02:15:56.142Z,6.88
2018-12-24T02:19:01.710Z,6.78
2018-12-24T02:21:42.326Z,6.69
2018-12-24T02:24:29.800Z,6.85
2018-12-24T02:27:10.581Z,6.79
2018-12-24T02:33:24.150Z,6.96
2018-12-24T02:36:11.415Z,6.75
2018-12-24T02:38:58.862Z,6.69
2018-12-24T02:41:45.664Z,6.60
2018-12-24T02:44:29.963Z,6.56
2018-12-24T02:47:17.404Z,6.50
2018-12-24T02:49:58.102Z,6.52
2018-12-24T02:52:45.592Z,6.53
2018-12-24T02:55:26.062Z,6.54
2018-12-24T02:58:13.352Z,6.66
2018-12-24T03:04:28.623Z,6.47
2018-12-24T03:10:21.605Z,6.57
2018-12-24T03:13:09.099Z,6.52
2018-12-24T03:15:49.483Z,6.49
2018-12-24T03:18:37.220Z,6.55
2018-12-24T03:21:17.778Z,6.50
2018-12-24T03:24:05.262Z,6.64
2018-12-24T03:26:45.720Z,6.79
2018-12-24T03:29:33.172Z,6.62
2018-12-24T03:32:13.802Z,6.61
2018-12-24T03:35:01.073Z,6.50
2018-12-24T03:37:41.819Z,6.43
2018-12-24T03:40:29.061Z,6.45
2018-12-24T03:43:16.540Z,6.32
2018-12-24T03:46:03.970Z,6.63
2018-12-24T03:48:44.060Z,6.55
2018-12-24T03:51:31.700Z,6.62
2018-12-24T03:54:12.664Z,6.73
2018-12-24T03:57:17.758Z,6.59
2018-12-24T03:59:58.456Z,6.72
2018-12-24T04:02:45.887Z,6.63
2018-12-24T04:05:24.297Z,6.41
2018-12-24T04:08:11.510Z,6.37
2018-12-24T04:10:52.004Z,6.25
2018-12-24T04:13:39.282Z,6.29
2018-12-24T04:16:17.962Z,6.22
2018-12-24T04:19:05.240Z,6.31
2018-12-24T04:21:45.298Z,6.38
2018-12-24T04:24:32.728Z,6.32
2018-12-24T04:27:11.136Z,6.24
2018-12-24T04:29:51.756Z,6.24
2018-12-24T04:32:39.024Z,6.28
2018-12-24T04:35:19.351Z,6.16
2018-12-24T04:38:06.600Z,6.29
2018-12-24T04:40:47.747Z,6.12
2018-12-24T04:44:11.415Z,6.18
2018-12-24T04:46:51.493Z,6.16
2018-12-24T04:49:38.759Z,6.26
2018-12-24T04:52:18.666Z,6.11
2018-12-24T04:55:08.206Z,6.15
2018-12-24T04:57:48.687Z,6.06
2018-12-24T05:01:19.929Z,6.03
2018-12-24T05:04:07.223Z,5.99
2018-12-24T05:06:47.825Z,5.99
2018-12-24T05:09:35.441Z,6.07
2018-12-24T05:12:15.820Z,6.00
2018-12-24T05:15:03.173Z,6.02
2018-12-24T05:17:47.812Z,5.95
2018-12-24T05:20:35.046Z,5.81
2018-12-24T05:23:17.305Z,5.73
2018-12-24T05:26:04.739Z,5.54
2018-12-24T05:28:44.652Z,5.50
2018-12-24T05:31:31.955Z,5.47
2018-12-24T05:34:12.773Z,5.49
2018-12-24T05:40:28.536Z,5.38
2018-12-24T05:46:20.354Z,5.37
2018-12-24T05:49:07.614Z,5.29
2018-12-24T05:51:48.693Z,5.29
2018-12-24T05:57:24.835Z,5.34
2018-12-24T06:00:58.469Z,5.25
2018-12-24T06:03:46.249Z,5.17
2018-12-24T06:12:51.087Z,5.21
2018-12-24T06:15:40.647Z,5.19
2018-12-24T06:18:20.979Z,5.22
2018-12-24T06:21:08.603Z,5.13
2018-12-24T06:24:15.002Z,5.05
2018-12-24T06:30:06.132Z,5.16
2018-12-24T06:32:53.401Z,5.14
2018-12-24T06:35:40.664Z,5.22
2018-12-24T06:38:28.353Z,5.14
2018-12-24T06:41:08.962Z,5.13
2018-12-24T06:43:56.246Z,5.22
2018-12-24T06:46:36.870Z,5.24
2018-12-24T06:49:24.301Z,5.22
2018-12-24T06:52:04.590Z,5.14
2018-12-24T06:54:51.840Z,5.21
2018-12-24T06:57:40.393Z,5.01
2018-12-24T07:00:22.367Z,5.04
2018-12-24T07:03:09.900Z,5.03
2018-12-24T07:05:53.039Z,5.06
2018-12-24T07:08:34.328Z,5.17
2018-12-24T07:11:15.197Z,5.08
2018-12-24T07:14:02.449Z,5.10
2018-12-24T07:16:43.344Z,5.20
2018-12-24T07:19:30.610Z,5.10
2018-12-24T07:22:12.160Z,5.07
2018-12-24T07:24:59.447Z,5.14
2018-12-24T07:27:39.949Z,5.10
2018-12-24T07:33:20.827Z,5.12
2018-12-24T07:36:00.879Z,5.22
2018-12-24T07:38:48.149Z,5.09
2018-12-24T07:41:28.023Z,5.17
2018-12-24T07:44:23.944Z,5.30
2018-12-24T07:46:58.369Z,5.32
2018-12-24T07:49:45.585Z,5.31
2018-12-24T07:52:26.119Z,5.32
2018-12-24T07:55:13.613Z,5.39
2018-12-24T07:57:54.303Z,5.46
2018-12-24T08:00:41.809Z,5.50
2018-12-24T08:03:25.432Z,5.39
2018-12-24T08:06:12.709Z,5.63
2018-12-24T08:08:53.473Z,5.46
2018-12-24T08:11:37.025Z,5.47
2018-12-24T08:14:32.765Z,5.53
2018-12-24T08:17:07.329Z,5.37
2018-12-24T08:19:54.766Z,5.25
2018-12-24T08:22:35.264Z,4.91
2018-12-24T08:25:22.737Z,4.83
2018-12-24T08:28:10.207Z,4.72
2018-12-24T08:30:57.454Z,4.66
2018-12-24T08:33:37.460Z,4.71
2018-12-24T08:36:24.887Z,4.66
2018-12-24T08:39:05.763Z,4.61
2018-12-24T08:41:53.204Z,4.55
2018-12-24T08:44:41.548Z,4.62
2018-12-24T08:47:23.581Z,4.72
2018-12-24T08:50:11.367Z,4.85
2018-12-24T08:55:40.825Z,4.96
2018-12-24T08:58:28.097Z,5.07
2018-12-24T09:01:09.294Z,5.23
2018-12-24T09:03:56.500Z,5.45
2018-12-24T09:06:36.948Z,5.68
2018-12-24T09:09:24.154Z,5.86
2018-12-24T09:12:05.057Z,5.93
2018-12-24T09:14:55.476Z,6.10
2018-12-24T09:17:36.642Z,5.83
2018-12-24T09:20:23.991Z,5.68
2018-12-24T09:23:11.217Z,5.83
2018-12-24T09:25:58.867Z,5.78
2018-12-24T09:28:39.800Z,5.98
2018-12-24T09:31:27.282Z,6.09
2018-12-24T09:34:07.738Z,6.47
2018-12-24T09:40:44.163Z,7.59
2018-12-24T09:46:42.623Z,7.16
2018-12-24T09:49:23.363Z,6.72
2018-12-24T09:52:10.613Z,7.22
2018-12-24T09:54:50.533Z,9.39
2018-12-24T09:57:37.820Z,12.35
2018-12-24T10:00:18.641Z,12.66
2018-12-24T10:03:30.610Z,9.95
2018-12-24T10:06:12.822Z,8.60
2018-12-24T10:11:57.164Z,7.87
2018-12-24T10:14:44.595Z,11.52
2018-12-24T10:17:32.052Z,10.92
2018-12-24T10:20:12.375Z,11.89
2018-12-24T10:23:00.630Z,14.32
2018-12-24T10:25:41.638Z,13.82
2018-12-24T10:28:28.889Z,10.62
2018-12-24T10:31:10.118Z,9.34
2018-12-24T10:33:57.506Z,8.75
2018-12-24T10:39:34.020Z,7.87
2018-12-24T10:51:52.842Z,6.42
2018-12-24T10:54:40.349Z,6.56
2018-12-24T10:57:20.775Z,6.75
2018-12-24T11:00:09.719Z,6.87
2018-12-24T11:02:50.736Z,6.65
2018-12-24T11:05:37.968Z,5.86
2018-12-24T11:08:18.522Z,5.87
2018-12-24T11:10:58.979Z,6.16
2018-12-24T11:13:46.274Z,6.40
2018-12-24T11:16:33.505Z,5.57
2018-12-24T11:19:14.415Z,5.25
2018-12-24T11:22:13.903Z,5.15
2018-12-24T11:24:44.287Z,5.16
2018-12-24T11:27:31.731Z,5.19
2018-12-24T11:30:12.077Z,4.75
2018-12-24T11:32:59.329Z,4.42
2018-12-24T11:35:46.822Z,4.29
2018-12-24T11:38:34.491Z,4.31
2018-12-24T11:41:15.137Z,4.29
2018-12-24T11:44:02.974Z,4.48
2018-12-24T11:46:43.160Z,4.53
2018-12-24T11:49:32.656Z,4.64
2018-12-24T11:52:12.327Z,4.54
2018-12-24T11:55:00.160Z,4.66
2018-12-24T11:57:40.682Z,4.72
2018-12-24T12:00:27.953Z,4.69
2018-12-24T12:03:15.402Z,4.73
2018-12-24T12:06:02.612Z,4.83
2018-12-24T12:08:43.060Z,4.99
2018-12-24T12:11:23.999Z,4.78
2018-12-24T12:14:11.247Z,4.82
2018-12-24T12:16:51.921Z,4.65
2018-12-24T12:19:39.167Z,4.45
2018-12-24T12:22:21.541Z,4.20
2018-12-24T12:25:51.113Z,4.05
2018-12-24T12:28:31.314Z,4.01
2018-12-24T12:31:18.537Z,3.90
2018-12-24T12:33:59.839Z,3.71
2018-12-24T12:36:40.509Z,3.76
2018-12-24T12:40:14.374Z,3.71
2018-12-24T12:43:01.832Z,3.76
2018-12-24T12:45:42.106Z,3.98
2018-12-24T12:48:29.375Z,3.67
2018-12-24T12:51:10.334Z,3.51
2018-12-24T12:54:35.611Z,3.50
2018-12-24T12:57:16.308Z,3.47
2018-12-24T12:59:58.190Z,3.54
2018-12-24T13:02:45.916Z,3.49
2018-12-24T13:05:26.304Z,3.33
2018-12-24T13:08:15.985Z,3.18
2018-12-24T13:10:56.466Z,3.20
2018-12-24T13:13:43.722Z,3.17
2018-12-24T13:16:24.502Z,3.29
2018-12-24T13:19:11.775Z,3.32
2018-12-24T13:21:52.271Z,3.31
2018-12-24T13:24:39.550Z,3.39
2018-12-24T13:27:21.143Z,3.46
2018-12-24T13:30:08.624Z,3.89
2018-12-24T13:32:48.780Z,3.88
2018-12-24T13:35:36.047Z,3.51
2018-12-24T13:38:42.906Z,3.41
2018-12-24T13:41:27.072Z,3.46
2018-12-24T13:44:14.497Z,3.47
2018-12-24T13:46:55.197Z,3.62
2018-12-24T13:49:42.766Z,3.44
2018-12-24T13:55:34.438Z,3.33
2018-12-24T13:58:21.893Z,3.28
2018-12-24T14:04:26.461Z,3.31
2018-12-24T14:07:13.905Z,3.33
2018-12-24T14:09:53.743Z,3.21
2018-12-24T14:18:56.327Z,3.16
2018-12-24T14:25:31.128Z,3.09
2018-12-24T14:28:11.400Z,3.09
2018-12-24T14:30:58.636Z,3.13
2018-12-24T14:33:37.232Z,3.11
2018-12-24T14:36:24.713Z,3.10
2018-12-24T14:39:05.628Z,3.07
2018-12-24T14:41:52.872Z,2.97
2018-12-24T14:44:34.064Z,3.03
2018-12-24T14:47:21.532Z,2.94
2018-12-24T14:50:02.072Z,2.92
2018-12-24T14:52:49.521Z,2.91
2018-12-24T14:55:30.291Z,2.85
2018-12-24T14:59:05.239Z,3.04
2018-12-24T15:01:52.829Z,3.10
2018-12-24T15:04:33.081Z,2.94
2018-12-24T15:07:20.326Z,2.97
2018-12-24T15:10:01.154Z,2.96
2018-12-24T15:12:41.446Z,2.97
2018-12-24T15:15:28.891Z,3.13
2018-12-24T15:18:16.164Z,3.09
2018-12-24T15:21:03.433Z,3.20
2018-12-24T15:23:43.655Z,3.29
2018-12-24T15:26:30.919Z,3.30
2018-12-24T15:29:17.858Z,3.40
2018-12-24T15:35:24.319Z,3.43
2018-12-24T15:38:11.565Z,3.42
2018-12-24T15:40:53.291Z,3.44
2018-12-24T15:43:40.553Z,3.35
2018-12-24T15:46:20.477Z,3.50
2018-12-24T15:49:08.119Z,3.74
2018-12-24T15:51:46.720Z,3.68
2018-12-24T15:54:34.219Z,3.51
2018-12-24T15:57:15.231Z,3.61
2018-12-24T16:00:03.219Z,3.59
2018-12-24T16:02:43.406Z,3.68
2018-12-24T16:05:30.648Z,3.61
2018-12-24T16:08:10.569Z,3.64
2018-12-24T16:10:50.783Z,3.77
2018-12-24T16:13:56.210Z,3.66
2018-12-24T16:16:36.098Z,3.65
2018-12-24T16:19:23.532Z,3.72
2018-12-24T16:22:04.278Z,3.67
2018-12-24T16:24:51.885Z,3.79
2018-12-24T16:30:48.804Z,3.78
2018-12-24T16:37:13.829Z,4.02
2018-12-24T16:39:54.244Z,3.99
2018-12-24T16:42:41.475Z,4.02
2018-12-24T16:45:20.516Z,3.72
2018-12-24T16:48:08.002Z,3.76
2018-12-24T16:50:47.956Z,3.61
2018-12-24T16:53:40.404Z,3.80
2018-12-24T16:56:17.288Z,3.91
2018-12-24T16:59:04.546Z,3.94
2018-12-24T17:01:45.607Z,3.99
2018-12-24T17:04:33.058Z,3.95
2018-12-24T17:07:13.990Z,3.85
2018-12-24T17:10:01.410Z,3.98
2018-12-24T17:12:42.328Z,4.12
2018-12-24T17:15:29.678Z,4.16
2018-12-24T17:18:09.892Z,4.07
2018-12-24T17:20:57.162Z,4.04
2018-12-24T17:23:37.846Z,3.99
2018-12-24T17:26:25.070Z,4.08
2018-12-24T17:29:05.533Z,4.10
2018-12-24T17:32:10.929Z,4.14
2018-12-24T17:34:51.596Z,3.93
2018-12-24T17:37:38.833Z,3.88
2018-12-24T17:40:20.982Z,3.93
2018-12-24T17:43:08.190Z,3.78
2018-12-24T17:45:48.753Z,3.71
2018-12-24T17:48:36.240Z,3.70
2018-12-24T17:51:16.789Z,3.75
2018-12-24T17:54:04.049Z,3.75
2018-12-24T17:56:44.369Z,3.87
2018-12-24T17:59:31.780Z,3.73
2018-12-24T18:02:11.809Z,3.90
2018-12-24T18:05:01.773Z,3.92
2018-12-24T18:11:09.867Z,3.98
2018-12-24T18:13:57.108Z,3.95
2018-12-24T18:16:38.410Z,3.87
2018-12-24T18:19:25.639Z,3.97
2018-12-24T18:22:05.546Z,3.94
2018-12-24T18:25:49.936Z,3.99
2018-12-24T18:28:29.901Z,3.88
2018-12-24T18:31:35.408Z,3.87
2018-12-24T18:34:16.168Z,3.81
2018-12-24T18:37:03.891Z,3.66
2018-12-24T18:39:44.881Z,3.36
2018-12-24T18:42:32.471Z,3.37
2018-12-24T18:45:13.141Z,3.47
2018-12-24T18:48:00.358Z,3.54
2018-12-24T18:50:41.203Z,3.74
2018-12-24T18:53:29.189Z,3.56
2018-12-24T18:56:09.698Z,3.51
2018-12-24T18:58:56.955Z,3.75
2018-12-24T19:01:37.610Z,3.76
2018-12-24T19:04:24.844Z,3.74
2018-12-24T19:07:05.009Z,3.89
2018-12-24T19:09:52.450Z,3.92
2018-12-24T19:12:33.323Z,3.90
2018-12-24T19:15:20.951Z,3.58
2018-12-24T19:18:08.526Z,3.57
2018-12-24T19:20:48.549Z,3.58
2018-12-24T19:23:35.970Z,3.67
2018-12-24T19:26:17.824Z,3.69
2018-12-24T19:29:05.076Z,3.76
2018-12-24T19:31:45.247Z,3.85
2018-12-24T19:34:32.469Z,3.78
2018-12-24T19:37:13.187Z,4.01
2018-12-24T19:40:00.821Z,3.86
2018-12-24T19:42:43.578Z,3.89
2018-12-24T19:45:24.468Z,3.77
2018-12-24T19:48:11.746Z,3.75
2018-12-24T19:50:51.784Z,3.99
2018-12-24T19:53:39.066Z,3.74
2018-12-24T19:56:19.598Z,3.67
2018-12-24T19:59:07.011Z,3.70
2018-12-24T20:01:47.969Z,3.87
2018-12-24T20:04:35.251Z,3.75
2018-12-24T20:07:15.580Z,3.86
2018-12-24T20:10:03.891Z,3.61
2018-12-24T20:12:45.164Z,3.70
2018-12-24T20:19:04.377Z,3.86
2018-12-24T20:21:51.833Z,3.88
2018-12-24T20:30:47.527Z,4.01
2018-12-24T20:33:34.777Z,3.98
2018-12-24T20:36:15.650Z,4.06
2018-12-24T20:39:24.370Z,3.97
2018-12-24T20:42:04.384Z,3.74
2018-12-24T20:44:51.650Z,3.58
2018-12-24T20:47:33.024Z,3.68
2018-12-24T20:50:20.980Z,3.91
2018-12-24T20:53:08.428Z,3.71
2018-12-24T20:55:48.543Z,3.75
2018-12-24T20:58:35.989Z,3.82
2018-12-24T21:01:17.013Z,3.68
2018-12-24T21:04:05.053Z,3.88
2018-12-24T21:06:45.608Z,3.65
2018-12-24T21:09:32.857Z,3.77
2018-12-24T21:12:13.588Z,3.98
2018-12-24T21:15:01.003Z,4.01
2018-12-24T21:17:41.904Z,4.02
2018-12-24T21:20:29.546Z,3.85
2018-12-24T21:23:09.594Z,4.02
2018-12-24T21:25:56.841Z,3.93
2018-12-24T21:28:36.892Z,3.85
2018-12-24T21:31:24.341Z,3.87
2018-12-24T21:34:05.371Z,3.82
2018-12-24T21:36:52.578Z,4.02
2018-12-24T21:39:33.019Z,4.07
2018-12-24T21:42:20.437Z,3.98
2018-12-24T21:45:01.147Z,3.76
2018-12-24T21:47:48.666Z,3.89
2018-12-24T21:50:28.949Z,4.05
2018-12-24T21:53:16.389Z,4.04
2018-12-24T21:55:56.912Z,3.95
2018-12-24T21:58:44.189Z,4.09
2018-12-24T22:01:25.031Z,4.01
2018-12-24T22:04:12.717Z,4.09
2018-12-24T22:06:52.687Z,4.09
2018-12-24T22:09:39.931Z,4.04
2018-12-24T22:12:20.907Z,4.28
2018-12-24T22:14:48.679Z,4.36
2018-12-24T22:17:16.459Z,4.15
2018-12-24T22:19:44.436Z,4.13
2018-12-24T22:22:12.257Z,4.28
2018-12-24T22:24:42.312Z,4.31
2018-12-24T22:27:10.122Z,4.29
2018-12-24T22:29:37.851Z,4.40
2018-12-24T22:32:08.757Z,4.36
2018-12-24T22:34:36.657Z,4.38
2018-12-24T22:37:04.646Z,4.44
2018-12-24T22:39:32.437Z,4.43
2018-12-24T22:42:00.468Z,4.30
2018-12-24T22:44:28.383Z,4.18
2018-12-24T22:46:56.235Z,4.42
2018-12-24T22:49:23.982Z,4.29
2018-12-24T22:51:53.483Z,4.21
2018-12-24T22:54:21.322Z,4.37
2018-12-24T22:56:49.429Z,4.25
2018-12-24T22:59:20.279Z,4.37
2018-12-24T23:01:48.158Z,4.29
2018-12-24T23:04:15.941Z,4.31
2018-12-24T23:06:43.910Z,4.17
2018-12-24T23:09:11.775Z,4.22
2018-12-24T23:11:39.759Z,4.41
2018-12-24T23:14:07.599Z,4.31
2018-12-24T23:16:35.517Z,4.34
2018-12-24T23:19:03.314Z,4.26
2018-12-24T23:21:31.100Z,4.27
2018-12-24T23:23:59.168Z,4.29
2018-12-24T23:26:26.901Z,4.38
2018-12-24T23:28:54.690Z,4.19
2018-12-24T23:31:22.664Z,3.97
2018-12-24T23:33:50.448Z,4.13
2018-12-24T23:36:18.789Z,4.02
2018-12-24T23:38:46.600Z,3.98
2018-12-24T23:41:16.660Z,4.12
2018-12-24T23:43:44.441Z,3.98
2018-12-24T23:46:12.373Z,4.28
2018-12-24T23:48:41.239Z,4.20
2018-12-24T23:51:09.016Z,4.17
2018-12-24T23:53:36.797Z,4.27
2018-12-24T23:56:04.781Z,4.13
2018-12-24T23:58:32.578Z,4.09
